sensor_id;sensor_type;location;lat;lon;timestamp;P1;durP1;ratioP1;P2;durP2;ratioP2
28427;SDS011;15662;49.128;8.520;2023-02-15T00:00:12;36.92;;;20.85;;
28427;SDS011;15662;49.128;8.520;2023-02-15T00:02:44;35.92;;;20.63;;
28427;SDS011;15662;49.128;8.520;2023-02-15T00:05:12;34.40;;;19.23;;
28427;SDS011;15662;49.128;8.520;2023-02-15T00:07:39;33.15;;;19.30;;
28427;SDS011;15662;49.128;8.520;2023-02-15T00:10:08;38.13;;;20.02;;
28427;SDS011;15662;49.128;8.520;2023-02-15T00:12:38;35.13;;;19.42;;
28427;SDS011;15662;49.128;8.520;2023-02-15T00:15:05;38.22;;;21.27;;
28427;SDS011;15662;49.128;8.520;2023-02-15T00:17:34;43.33;;;22.52;;
28427;SDS011;15662;49.128;8.520;2023-02-15T00:20:01;37.72;;;21.08;;
28427;SDS011;15662;49.128;8.520;2023-02-15T00:22:29;35.67;;;20.83;;
28427;SDS011;15662;49.128;8.520;2023-02-15T00:24:57;35.28;;;20.83;;
28427;SDS011;15662;49.128;8.520;2023-02-15T00:27:25;39.95;;;21.60;;
28427;SDS011;15662;49.128;8.520;2023-02-15T00:29:53;35.33;;;21.23;;
28427;SDS011;15662;49.128;8.520;2023-02-15T00:32:21;41.08;;;21.50;;
28427;SDS011;15662;49.128;8.520;2023-02-15T00:34:49;37.55;;;21.08;;
28427;SDS011;15662;49.128;8.520;2023-02-15T00:37:16;36.15;;;20.88;;
28427;SDS011;15662;49.128;8.520;2023-02-15T00:39:46;36.28;;;21.60;;
28427;SDS011;15662;49.128;8.520;2023-02-15T00:42:14;36.70;;;21.17;;
28427;SDS011;15662;49.128;8.520;2023-02-15T00:44:42;37.38;;;20.90;;
28427;SDS011;15662;49.128;8.520;2023-02-15T00:47:10;34.95;;;20.95;;
28427;SDS011;15662;49.128;8.520;2023-02-15T00:49:38;38.53;;;21.67;;
28427;SDS011;15662;49.128;8.520;2023-02-15T00:52:06;39.47;;;21.23;;
28427;SDS011;15662;49.128;8.520;2023-02-15T00:54:35;35.05;;;21.30;;
28427;SDS011;15662;49.128;8.520;2023-02-15T00:57:03;35.67;;;21.23;;
28427;SDS011;15662;49.128;8.520;2023-02-15T00:59:31;37.85;;;21.80;;
28427;SDS011;15662;49.128;8.520;2023-02-15T01:01:59;36.92;;;21.38;;
28427;SDS011;15662;49.128;8.520;2023-02-15T01:04:29;36.70;;;20.50;;
28427;SDS011;15662;49.128;8.520;2023-02-15T01:06:57;38.78;;;21.85;;
28427;SDS011;15662;49.128;8.520;2023-02-15T01:09:25;38.95;;;22.05;;
28427;SDS011;15662;49.128;8.520;2023-02-15T01:11:53;37.35;;;21.98;;
28427;SDS011;15662;49.128;8.520;2023-02-15T01:14:21;42.08;;;21.63;;
28427;SDS011;15662;49.128;8.520;2023-02-15T01:16:49;38.28;;;21.13;;
28427;SDS011;15662;49.128;8.520;2023-02-15T01:19:16;36.97;;;21.40;;
28427;SDS011;15662;49.128;8.520;2023-02-15T01:21:44;38.58;;;22.02;;
28427;SDS011;15662;49.128;8.520;2023-02-15T01:24:13;35.67;;;21.52;;
28427;SDS011;15662;49.128;8.520;2023-02-15T01:26:41;38.40;;;21.00;;
28427;SDS011;15662;49.128;8.520;2023-02-15T01:29:09;37.10;;;20.50;;
28427;SDS011;15662;49.128;8.520;2023-02-15T01:31:37;38.55;;;21.50;;
28427;SDS011;15662;49.128;8.520;2023-02-15T01:34:06;37.08;;;20.08;;
28427;SDS011;15662;49.128;8.520;2023-02-15T01:36:34;36.15;;;20.60;;
28427;SDS011;15662;49.128;8.520;2023-02-15T01:39:02;34.88;;;19.83;;
28427;SDS011;15662;49.128;8.520;2023-02-15T01:41:30;34.83;;;20.13;;
28427;SDS011;15662;49.128;8.520;2023-02-15T01:44:00;38.20;;;20.50;;
28427;SDS011;15662;49.128;8.520;2023-02-15T01:46:32;41.40;;;19.65;;
28427;SDS011;15662;49.128;8.520;2023-02-15T01:49:08;34.55;;;20.13;;
28427;SDS011;15662;49.128;8.520;2023-02-15T01:51:44;34.42;;;20.05;;
28427;SDS011;15662;49.128;8.520;2023-02-15T01:54:21;34.60;;;19.77;;
28427;SDS011;15662;49.128;8.520;2023-02-15T01:57:03;37.47;;;19.33;;
28427;SDS011;15662;49.128;8.520;2023-02-15T01:59:39;34.10;;;20.13;;
28427;SDS011;15662;49.128;8.520;2023-02-15T02:02:13;32.72;;;19.55;;
28427;SDS011;15662;49.128;8.520;2023-02-15T02:04:48;41.90;;;20.15;;
28427;SDS011;15662;49.128;8.520;2023-02-15T02:07:22;38.30;;;19.80;;
28427;SDS011;15662;49.128;8.520;2023-02-15T02:09:54;33.90;;;19.90;;
28427;SDS011;15662;49.128;8.520;2023-02-15T02:12:23;37.53;;;20.17;;
28427;SDS011;15662;49.128;8.520;2023-02-15T02:14:52;40.72;;;19.52;;
28427;SDS011;15662;49.128;8.520;2023-02-15T02:17:32;33.00;;;19.23;;
28427;SDS011;15662;49.128;8.520;2023-02-15T02:23:08;32.03;;;18.85;;
28427;SDS011;15662;49.128;8.520;2023-02-15T02:35:39;32.65;;;17.55;;
28427;SDS011;15662;49.128;8.520;2023-02-15T02:41:31;29.00;;;17.30;;
28427;SDS011;15662;49.128;8.520;2023-02-15T02:44:24;30.13;;;17.55;;
28427;SDS011;15662;49.128;8.520;2023-02-15T02:52:35;34.88;;;16.63;;
28427;SDS011;15662;49.128;8.520;2023-02-15T02:55:10;29.67;;;15.55;;
28427;SDS011;15662;49.128;8.520;2023-02-15T02:58:19;23.58;;;14.38;;
28427;SDS011;15662;49.128;8.520;2023-02-15T03:01:03;19.00;;;13.07;;
28427;SDS011;15662;49.128;8.520;2023-02-15T03:03:48;16.73;;;11.48;;
28427;SDS011;15662;49.128;8.520;2023-02-15T03:06:29;16.67;;;11.38;;
28427;SDS011;15662;49.128;8.520;2023-02-15T03:09:13;17.45;;;12.15;;
28427;SDS011;15662;49.128;8.520;2023-02-15T03:12:10;19.63;;;11.95;;
28427;SDS011;15662;49.128;8.520;2023-02-15T03:14:48;19.27;;;11.90;;
28427;SDS011;15662;49.128;8.520;2023-02-15T03:17:40;17.13;;;11.07;;
28427;SDS011;15662;49.128;8.520;2023-02-15T03:20:37;15.60;;;10.98;;
28427;SDS011;15662;49.128;8.520;2023-02-15T03:23:16;21.67;;;12.05;;
28427;SDS011;15662;49.128;8.520;2023-02-15T03:25:52;22.67;;;12.45;;
28427;SDS011;15662;49.128;8.520;2023-02-15T03:28:36;19.90;;;11.73;;
28427;SDS011;15662;49.128;8.520;2023-02-15T03:31:10;16.85;;;11.35;;
28427;SDS011;15662;49.128;8.520;2023-02-15T03:33:44;16.95;;;11.90;;
28427;SDS011;15662;49.128;8.520;2023-02-15T03:36:24;19.90;;;12.30;;
28427;SDS011;15662;49.128;8.520;2023-02-15T03:39:42;25.90;;;12.70;;
28427;SDS011;15662;49.128;8.520;2023-02-15T03:42:29;18.85;;;11.73;;
28427;SDS011;15662;49.128;8.520;2023-02-15T03:45:08;17.05;;;11.27;;
28427;SDS011;15662;49.128;8.520;2023-02-15T03:47:46;17.45;;;11.63;;
28427;SDS011;15662;49.128;8.520;2023-02-15T03:50:18;20.73;;;11.27;;
28427;SDS011;15662;49.128;8.520;2023-02-15T03:53:13;16.63;;;11.55;;
28427;SDS011;15662;49.128;8.520;2023-02-15T03:55:48;17.13;;;11.82;;
28427;SDS011;15662;49.128;8.520;2023-02-15T03:58:22;21.77;;;11.70;;
28427;SDS011;15662;49.128;8.520;2023-02-15T04:01:22;15.32;;;11.05;;
28427;SDS011;15662;49.128;8.520;2023-02-15T04:04:21;17.10;;;11.13;;
28427;SDS011;15662;49.128;8.520;2023-02-15T04:07:09;15.50;;;10.80;;
28427;SDS011;15662;49.128;8.520;2023-02-15T04:09:37;15.30;;;10.77;;
28427;SDS011;15662;49.128;8.520;2023-02-15T04:12:23;16.40;;;11.32;;
28427;SDS011;15662;49.128;8.520;2023-02-15T04:14:51;16.33;;;11.43;;
28427;SDS011;15662;49.128;8.520;2023-02-15T04:17:38;15.18;;;10.77;;
28427;SDS011;15662;49.128;8.520;2023-02-15T04:20:06;14.55;;;11.13;;
28427;SDS011;15662;49.128;8.520;2023-02-15T04:22:54;12.88;;;10.18;;
28427;SDS011;15662;49.128;8.520;2023-02-15T04:25:41;14.90;;;10.52;;
28427;SDS011;15662;49.128;8.520;2023-02-15T04:28:09;14.70;;;10.75;;
28427;SDS011;15662;49.128;8.520;2023-02-15T04:30:37;15.60;;;10.98;;
28427;SDS011;15662;49.128;8.520;2023-02-15T04:33:04;13.73;;;10.27;;
28427;SDS011;15662;49.128;8.520;2023-02-15T04:35:33;13.18;;;9.95;;
28427;SDS011;15662;49.128;8.520;2023-02-15T04:38:01;13.85;;;10.05;;
28427;SDS011;15662;49.128;8.520;2023-02-15T04:40:29;13.45;;;9.65;;
28427;SDS011;15662;49.128;8.520;2023-02-15T04:42:56;15.35;;;10.25;;
28427;SDS011;15662;49.128;8.520;2023-02-15T04:45:24;14.07;;;10.02;;
28427;SDS011;15662;49.128;8.520;2023-02-15T04:47:55;13.20;;;9.77;;
28427;SDS011;15662;49.128;8.520;2023-02-15T04:50:22;13.02;;;9.35;;
28427;SDS011;15662;49.128;8.520;2023-02-15T04:52:50;12.98;;;9.18;;
28427;SDS011;15662;49.128;8.520;2023-02-15T04:55:18;14.20;;;9.88;;
28427;SDS011;15662;49.128;8.520;2023-02-15T04:57:46;14.30;;;10.15;;
28427;SDS011;15662;49.128;8.520;2023-02-15T05:00:14;12.88;;;9.30;;
28427;SDS011;15662;49.128;8.520;2023-02-15T05:02:42;13.32;;;9.50;;
28427;SDS011;15662;49.128;8.520;2023-02-15T05:05:10;12.40;;;9.85;;
28427;SDS011;15662;49.128;8.520;2023-02-15T05:07:40;13.73;;;10.02;;
28427;SDS011;15662;49.128;8.520;2023-02-15T05:10:08;11.55;;;9.15;;
28427;SDS011;15662;49.128;8.520;2023-02-15T05:12:36;12.68;;;9.50;;
28427;SDS011;15662;49.128;8.520;2023-02-15T05:15:04;12.52;;;9.75;;
28427;SDS011;15662;49.128;8.520;2023-02-15T05:17:32;14.60;;;9.95;;
28427;SDS011;15662;49.128;8.520;2023-02-15T05:20:00;10.85;;;8.68;;
28427;SDS011;15662;49.128;8.520;2023-02-15T05:22:28;12.88;;;9.18;;
28427;SDS011;15662;49.128;8.520;2023-02-15T05:24:56;10.65;;;8.45;;
28427;SDS011;15662;49.128;8.520;2023-02-15T05:27:43;10.57;;;8.50;;
28427;SDS011;15662;49.128;8.520;2023-02-15T05:30:31;11.73;;;8.95;;
28427;SDS011;15662;49.128;8.520;2023-02-15T05:32:59;12.57;;;9.05;;
28427;SDS011;15662;49.128;8.520;2023-02-15T05:35:27;13.32;;;8.93;;
28427;SDS011;15662;49.128;8.520;2023-02-15T05:37:55;10.57;;;8.32;;
28427;SDS011;15662;49.128;8.520;2023-02-15T05:40:23;13.85;;;9.60;;
28427;SDS011;15662;49.128;8.520;2023-02-15T05:42:51;13.65;;;9.50;;
28427;SDS011;15662;49.128;8.520;2023-02-15T05:45:18;14.38;;;9.70;;
28427;SDS011;15662;49.128;8.520;2023-02-15T05:47:46;11.85;;;9.30;;
28427;SDS011;15662;49.128;8.520;2023-02-15T05:50:14;11.27;;;8.57;;
28427;SDS011;15662;49.128;8.520;2023-02-15T05:52:42;12.07;;;8.98;;
28427;SDS011;15662;49.128;8.520;2023-02-15T05:55:10;12.30;;;9.10;;
28427;SDS011;15662;49.128;8.520;2023-02-15T05:57:40;12.27;;;9.50;;
28427;SDS011;15662;49.128;8.520;2023-02-15T06:00:08;11.52;;;9.02;;
28427;SDS011;15662;49.128;8.520;2023-02-15T06:02:39;22.30;;;8.93;;
28427;SDS011;15662;49.128;8.520;2023-02-15T06:05:08;12.00;;;9.15;;
28427;SDS011;15662;49.128;8.520;2023-02-15T06:07:36;11.57;;;9.07;;
28427;SDS011;15662;49.128;8.520;2023-02-15T06:10:04;13.57;;;10.50;;
28427;SDS011;15662;49.128;8.520;2023-02-15T06:12:34;13.50;;;9.80;;
28427;SDS011;15662;49.128;8.520;2023-02-15T06:15:02;12.63;;;9.27;;
28427;SDS011;15662;49.128;8.520;2023-02-15T06:17:31;13.35;;;9.75;;
28427;SDS011;15662;49.128;8.520;2023-02-15T06:19:59;15.52;;;9.90;;
28427;SDS011;15662;49.128;8.520;2023-02-15T06:22:27;12.50;;;9.52;;
28427;SDS011;15662;49.128;8.520;2023-02-15T06:24:55;13.07;;;9.73;;
28427;SDS011;15662;49.128;8.520;2023-02-15T06:27:23;16.88;;;9.52;;
28427;SDS011;15662;49.128;8.520;2023-02-15T06:29:50;15.93;;;9.70;;
28427;SDS011;15662;49.128;8.520;2023-02-15T06:32:18;14.98;;;9.93;;
28427;SDS011;15662;49.128;8.520;2023-02-15T06:34:46;11.77;;;9.27;;
28427;SDS011;15662;49.128;8.520;2023-02-15T06:37:14;12.88;;;9.40;;
28427;SDS011;15662;49.128;8.520;2023-02-15T06:39:45;15.18;;;10.55;;
28427;SDS011;15662;49.128;8.520;2023-02-15T06:42:15;13.82;;;10.43;;
28427;SDS011;15662;49.128;8.520;2023-02-15T06:47:12;14.32;;;9.98;;
28427;SDS011;15662;49.128;8.520;2023-02-15T06:49:40;17.05;;;11.23;;
28427;SDS011;15662;49.128;8.520;2023-02-15T06:52:09;16.17;;;11.13;;
28427;SDS011;15662;49.128;8.520;2023-02-15T06:54:40;17.15;;;11.57;;
28427;SDS011;15662;49.128;8.520;2023-02-15T06:57:08;19.80;;;12.05;;
28427;SDS011;15662;49.128;8.520;2023-02-15T06:59:36;19.17;;;13.85;;
28427;SDS011;15662;49.128;8.520;2023-02-15T07:02:04;20.17;;;13.60;;
28427;SDS011;15662;49.128;8.520;2023-02-15T07:04:36;23.35;;;13.52;;
28427;SDS011;15662;49.128;8.520;2023-02-15T07:07:10;22.60;;;14.53;;
28427;SDS011;15662;49.128;8.520;2023-02-15T07:09:39;22.60;;;15.32;;
28427;SDS011;15662;49.128;8.520;2023-02-15T07:12:08;20.52;;;13.43;;
28427;SDS011;15662;49.128;8.520;2023-02-15T07:14:55;18.17;;;12.55;;
28427;SDS011;15662;49.128;8.520;2023-02-15T07:17:25;21.27;;;13.13;;
28427;SDS011;15662;49.128;8.520;2023-02-15T07:20:04;20.40;;;13.43;;
28427;SDS011;15662;49.128;8.520;2023-02-15T07:22:37;20.13;;;12.88;;
28427;SDS011;15662;49.128;8.520;2023-02-15T07:25:06;20.27;;;13.82;;
28427;SDS011;15662;49.128;8.520;2023-02-15T07:27:36;21.13;;;14.30;;
28427;SDS011;15662;49.128;8.520;2023-02-15T07:30:05;21.10;;;13.45;;
28427;SDS011;15662;49.128;8.520;2023-02-15T07:32:38;25.55;;;14.05;;
28427;SDS011;15662;49.128;8.520;2023-02-15T07:35:34;24.80;;;15.15;;
28427;SDS011;15662;49.128;8.520;2023-02-15T07:38:02;23.40;;;15.27;;
28427;SDS011;15662;49.128;8.520;2023-02-15T07:40:29;26.80;;;16.48;;
28427;SDS011;15662;49.128;8.520;2023-02-15T07:42:57;27.25;;;15.55;;
28427;SDS011;15662;49.128;8.520;2023-02-15T07:45:26;27.83;;;15.98;;
28427;SDS011;15662;49.128;8.520;2023-02-15T07:47:54;26.77;;;16.52;;
28427;SDS011;15662;49.128;8.520;2023-02-15T07:50:22;26.25;;;16.20;;
28427;SDS011;15662;49.128;8.520;2023-02-15T07:52:50;25.55;;;16.77;;
28427;SDS011;15662;49.128;8.520;2023-02-15T07:55:17;27.88;;;17.23;;
28427;SDS011;15662;49.128;8.520;2023-02-15T07:57:46;24.52;;;16.13;;
28427;SDS011;15662;49.128;8.520;2023-02-15T08:00:17;26.85;;;16.63;;
28427;SDS011;15662;49.128;8.520;2023-02-15T08:02:50;26.13;;;17.75;;
28427;SDS011;15662;49.128;8.520;2023-02-15T08:05:42;27.90;;;17.10;;
28427;SDS011;15662;49.128;8.520;2023-02-15T08:08:12;25.35;;;16.63;;
28427;SDS011;15662;49.128;8.520;2023-02-15T08:19:11;24.80;;;15.63;;
28427;SDS011;15662;49.128;8.520;2023-02-15T08:21:48;28.17;;;16.92;;
28427;SDS011;15662;49.128;8.520;2023-02-15T08:24:21;26.15;;;15.85;;
28427;SDS011;15662;49.128;8.520;2023-02-15T08:26:50;25.23;;;16.00;;
28427;SDS011;15662;49.128;8.520;2023-02-15T08:29:21;28.92;;;15.90;;
28427;SDS011;15662;49.128;8.520;2023-02-15T08:31:52;25.10;;;15.65;;
28427;SDS011;15662;49.128;8.520;2023-02-15T08:34:30;26.45;;;16.27;;
28427;SDS011;15662;49.128;8.520;2023-02-15T08:37:01;25.98;;;15.95;;
28427;SDS011;15662;49.128;8.520;2023-02-15T08:39:29;24.70;;;15.98;;
28427;SDS011;15662;49.128;8.520;2023-02-15T08:41:57;28.05;;;15.98;;
28427;SDS011;15662;49.128;8.520;2023-02-15T08:44:27;24.52;;;15.85;;
28427;SDS011;15662;49.128;8.520;2023-02-15T08:46:58;24.38;;;15.27;;
28427;SDS011;15662;49.128;8.520;2023-02-15T08:49:31;26.48;;;15.18;;
28427;SDS011;15662;49.128;8.520;2023-02-15T08:52:00;23.63;;;15.45;;
28427;SDS011;15662;49.128;8.520;2023-02-15T08:54:28;23.08;;;15.85;;
28427;SDS011;15662;49.128;8.520;2023-02-15T08:56:56;21.70;;;14.98;;
28427;SDS011;15662;49.128;8.520;2023-02-15T08:59:44;25.08;;;16.70;;
28427;SDS011;15662;49.128;8.520;2023-02-15T09:02:13;26.70;;;17.45;;
28427;SDS011;15662;49.128;8.520;2023-02-15T09:04:41;30.77;;;20.27;;
28427;SDS011;15662;49.128;8.520;2023-02-15T09:07:09;27.35;;;18.13;;
28427;SDS011;15662;49.128;8.520;2023-02-15T09:09:37;32.15;;;19.30;;
28427;SDS011;15662;49.128;8.520;2023-02-15T09:12:06;25.70;;;15.52;;
28427;SDS011;15662;49.128;8.520;2023-02-15T09:14:34;23.67;;;15.07;;
28427;SDS011;15662;49.128;8.520;2023-02-15T09:17:02;24.48;;;16.08;;
28427;SDS011;15662;49.128;8.520;2023-02-15T09:19:31;25.73;;;16.13;;
28427;SDS011;15662;49.128;8.520;2023-02-15T09:21:59;24.63;;;16.52;;
28427;SDS011;15662;49.128;8.520;2023-02-15T09:24:31;23.55;;;15.52;;
28427;SDS011;15662;49.128;8.520;2023-02-15T09:27:03;23.27;;;15.82;;
28427;SDS011;15662;49.128;8.520;2023-02-15T09:29:30;25.48;;;16.25;;
28427;SDS011;15662;49.128;8.520;2023-02-15T09:31:58;25.05;;;16.35;;
28427;SDS011;15662;49.128;8.520;2023-02-15T09:34:28;22.60;;;15.25;;
28427;SDS011;15662;49.128;8.520;2023-02-15T09:36:56;23.17;;;15.52;;
28427;SDS011;15662;49.128;8.520;2023-02-15T09:39:26;26.25;;;15.25;;
28427;SDS011;15662;49.128;8.520;2023-02-15T09:45:26;21.58;;;14.18;;
28427;SDS011;15662;49.128;8.520;2023-02-15T09:54:09;25.80;;;15.30;;
28427;SDS011;15662;49.128;8.520;2023-02-15T09:57:19;22.73;;;15.15;;
28427;SDS011;15662;49.128;8.520;2023-02-15T10:11:44;24.42;;;16.98;;
28427;SDS011;15662;49.128;8.520;2023-02-15T10:31:37;18.42;;;13.43;;
28427;SDS011;15662;49.128;8.520;2023-02-15T10:34:39;17.52;;;12.35;;
28427;SDS011;15662;49.128;8.520;2023-02-15T10:37:33;19.48;;;13.02;;
28427;SDS011;15662;49.128;8.520;2023-02-15T10:41:00;17.23;;;12.60;;
28427;SDS011;15662;49.128;8.520;2023-02-15T10:46:33;17.08;;;12.48;;
28427;SDS011;15662;49.128;8.520;2023-02-15T10:49:41;17.10;;;12.30;;
28427;SDS011;15662;49.128;8.520;2023-02-15T11:07:04;22.33;;;14.60;;
28427;SDS011;15662;49.128;8.520;2023-02-15T11:09:59;20.25;;;14.07;;
28427;SDS011;15662;49.128;8.520;2023-02-15T11:12:56;20.08;;;14.25;;
28427;SDS011;15662;49.128;8.520;2023-02-15T11:19:01;18.98;;;13.32;;
28427;SDS011;15662;49.128;8.520;2023-02-15T11:22:01;22.77;;;13.48;;
28427;SDS011;15662;49.128;8.520;2023-02-15T11:24:41;20.90;;;14.00;;
28427;SDS011;15662;49.128;8.520;2023-02-15T11:29:40;20.33;;;13.75;;
28427;SDS011;15662;49.128;8.520;2023-02-15T11:35:30;17.92;;;13.50;;
28427;SDS011;15662;49.128;8.520;2023-02-15T11:38:21;22.48;;;14.20;;
28427;SDS011;15662;49.128;8.520;2023-02-15T11:41:01;20.83;;;14.27;;
28427;SDS011;15662;49.128;8.520;2023-02-15T11:46:25;19.48;;;13.88;;
28427;SDS011;15662;49.128;8.520;2023-02-15T11:48:53;20.17;;;14.30;;
28427;SDS011;15662;49.128;8.520;2023-02-15T11:51:21;19.88;;;14.85;;
28427;SDS011;15662;49.128;8.520;2023-02-15T11:53:52;19.60;;;14.77;;
28427;SDS011;15662;49.128;8.520;2023-02-15T11:56:23;18.23;;;11.17;;
28427;SDS011;15662;49.128;8.520;2023-02-15T11:59:13;19.83;;;14.38;;
28427;SDS011;15662;49.128;8.520;2023-02-15T12:01:50;22.30;;;14.65;;
28427;SDS011;15662;49.128;8.520;2023-02-15T12:04:37;18.85;;;13.77;;
28427;SDS011;15662;49.128;8.520;2023-02-15T12:10:19;17.60;;;13.55;;
28427;SDS011;15662;49.128;8.520;2023-02-15T12:13:18;17.42;;;13.23;;
28427;SDS011;15662;49.128;8.520;2023-02-15T12:15:48;18.90;;;13.35;;
28427;SDS011;15662;49.128;8.520;2023-02-15T12:18:36;17.27;;;13.40;;
28427;SDS011;15662;49.128;8.520;2023-02-15T12:21:12;18.15;;;13.38;;
28427;SDS011;15662;49.128;8.520;2023-02-15T12:24:21;18.13;;;13.45;;
28427;SDS011;15662;49.128;8.520;2023-02-15T12:29:41;18.35;;;13.40;;
28427;SDS011;15662;49.128;8.520;2023-02-15T12:32:21;18.38;;;13.73;;
28427;SDS011;15662;49.128;8.520;2023-02-15T12:34:52;20.42;;;14.43;;
28427;SDS011;15662;49.128;8.520;2023-02-15T12:37:31;19.20;;;14.38;;
28427;SDS011;15662;49.128;8.520;2023-02-15T12:40:11;20.85;;;14.88;;
28427;SDS011;15662;49.128;8.520;2023-02-15T12:42:52;21.60;;;15.50;;
28427;SDS011;15662;49.128;8.520;2023-02-15T12:45:27;19.58;;;15.40;;
28427;SDS011;15662;49.128;8.520;2023-02-15T12:50:40;19.63;;;15.07;;
28427;SDS011;15662;49.128;8.520;2023-02-15T12:53:17;19.63;;;14.80;;
28427;SDS011;15662;49.128;8.520;2023-02-15T12:55:50;19.33;;;15.15;;
28427;SDS011;15662;49.128;8.520;2023-02-15T12:58:24;22.30;;;14.95;;
28427;SDS011;15662;49.128;8.520;2023-02-15T13:06:35;17.45;;;14.25;;
28427;SDS011;15662;49.128;8.520;2023-02-15T13:11:46;18.00;;;13.88;;
28427;SDS011;15662;49.128;8.520;2023-02-15T13:14:21;20.95;;;16.13;;
28427;SDS011;15662;49.128;8.520;2023-02-15T13:17:00;22.08;;;15.65;;
28427;SDS011;15662;49.128;8.520;2023-02-15T13:19:42;23.77;;;15.75;;
28427;SDS011;15662;49.128;8.520;2023-02-15T13:22:16;22.23;;;16.77;;
28427;SDS011;15662;49.128;8.520;2023-02-15T13:24:56;25.13;;;17.60;;
28427;SDS011;15662;49.128;8.520;2023-02-15T13:27:36;23.13;;;17.58;;
28427;SDS011;15662;49.128;8.520;2023-02-15T13:30:16;20.23;;;15.45;;
28427;SDS011;15662;49.128;8.520;2023-02-15T13:32:59;21.20;;;16.45;;
28427;SDS011;15662;49.128;8.520;2023-02-15T13:36:05;22.30;;;17.08;;
28427;SDS011;15662;49.128;8.520;2023-02-15T13:41:32;22.98;;;17.23;;
28427;SDS011;15662;49.128;8.520;2023-02-15T13:56:35;23.63;;;17.85;;
28427;SDS011;15662;49.128;8.520;2023-02-15T14:17:25;19.65;;;16.02;;
28427;SDS011;15662;49.128;8.520;2023-02-15T14:20:30;22.10;;;16.50;;
28427;SDS011;15662;49.128;8.520;2023-02-15T14:26:32;22.70;;;16.35;;
28427;SDS011;15662;49.128;8.520;2023-02-15T14:32:21;21.30;;;16.35;;
28427;SDS011;15662;49.128;8.520;2023-02-15T14:35:12;21.85;;;16.00;;
28427;SDS011;15662;49.128;8.520;2023-02-15T14:37:52;21.10;;;16.58;;
28427;SDS011;15662;49.128;8.520;2023-02-15T14:40:38;21.30;;;16.20;;
28427;SDS011;15662;49.128;8.520;2023-02-15T14:46:53;23.02;;;16.63;;
28427;SDS011;15662;49.128;8.520;2023-02-15T14:49:46;22.17;;;17.02;;
28427;SDS011;15662;49.128;8.520;2023-02-15T14:52:14;26.23;;;16.88;;
28427;SDS011;15662;49.128;8.520;2023-02-15T14:55:02;21.52;;;16.52;;
28427;SDS011;15662;49.128;8.520;2023-02-15T14:57:32;22.52;;;17.38;;
28427;SDS011;15662;49.128;8.520;2023-02-15T15:00:30;24.10;;;17.20;;
28427;SDS011;15662;49.128;8.520;2023-02-15T15:03:10;22.70;;;17.50;;
28427;SDS011;15662;49.128;8.520;2023-02-15T15:05:52;21.83;;;16.40;;
28427;SDS011;15662;49.128;8.520;2023-02-15T15:08:29;23.33;;;17.10;;
28427;SDS011;15662;49.128;8.520;2023-02-15T15:11:36;26.98;;;17.73;;
28427;SDS011;15662;49.128;8.520;2023-02-15T15:14:35;22.42;;;16.30;;
28427;SDS011;15662;49.128;8.520;2023-02-15T15:23:33;25.65;;;19.38;;
28427;SDS011;15662;49.128;8.520;2023-02-15T15:26:23;24.52;;;18.90;;
28427;SDS011;15662;49.128;8.520;2023-02-15T15:28:58;27.50;;;18.77;;
28427;SDS011;15662;49.128;8.520;2023-02-15T15:34:15;25.95;;;19.08;;
28427;SDS011;15662;49.128;8.520;2023-02-15T15:46:26;24.92;;;18.80;;
28427;SDS011;15662;49.128;8.520;2023-02-15T15:49:20;25.73;;;18.30;;
28427;SDS011;15662;49.128;8.520;2023-02-15T15:51:51;24.42;;;18.30;;
28427;SDS011;15662;49.128;8.520;2023-02-15T15:54:23;23.45;;;17.50;;
28427;SDS011;15662;49.128;8.520;2023-02-15T15:56:55;22.35;;;16.55;;
28427;SDS011;15662;49.128;8.520;2023-02-15T15:59:30;21.65;;;17.30;;
28427;SDS011;15662;49.128;8.520;2023-02-15T16:02:07;22.50;;;17.45;;
28427;SDS011;15662;49.128;8.520;2023-02-15T16:04:46;21.85;;;16.45;;
28427;SDS011;15662;49.128;8.520;2023-02-15T16:12:32;23.40;;;17.95;;
28427;SDS011;15662;49.128;8.520;2023-02-15T16:15:12;26.88;;;18.35;;
28427;SDS011;15662;49.128;8.520;2023-02-15T16:20:23;23.55;;;16.45;;
28427;SDS011;15662;49.128;8.520;2023-02-15T16:29:13;24.02;;;18.42;;
28427;SDS011;15662;49.128;8.520;2023-02-15T16:32:00;26.45;;;18.63;;
28427;SDS011;15662;49.128;8.520;2023-02-15T16:34:59;26.00;;;17.70;;
28427;SDS011;15662;49.128;8.520;2023-02-15T16:37:33;24.73;;;18.10;;
28427;SDS011;15662;49.128;8.520;2023-02-15T16:40:01;23.65;;;17.25;;
28427;SDS011;15662;49.128;8.520;2023-02-15T16:42:30;24.23;;;18.17;;
28427;SDS011;15662;49.128;8.520;2023-02-15T16:45:01;24.45;;;18.67;;
28427;SDS011;15662;49.128;8.520;2023-02-15T16:47:40;29.63;;;19.35;;
28427;SDS011;15662;49.128;8.520;2023-02-15T16:53:02;28.52;;;19.40;;
28427;SDS011;15662;49.128;8.520;2023-02-15T16:55:40;29.35;;;20.15;;
28427;SDS011;15662;49.128;8.520;2023-02-15T16:58:13;27.75;;;19.98;;
28427;SDS011;15662;49.128;8.520;2023-02-15T17:00:44;28.83;;;19.67;;
28427;SDS011;15662;49.128;8.520;2023-02-15T17:05:42;28.63;;;20.05;;
28427;SDS011;15662;49.128;8.520;2023-02-15T17:08:19;30.35;;;20.77;;
28427;SDS011;15662;49.128;8.520;2023-02-15T17:13:27;28.38;;;20.27;;
28427;SDS011;15662;49.128;8.520;2023-02-15T17:21:16;26.30;;;18.00;;
28427;SDS011;15662;49.128;8.520;2023-02-15T17:23:56;36.38;;;18.45;;
28427;SDS011;15662;49.128;8.520;2023-02-15T17:26:35;25.25;;;18.33;;
28427;SDS011;15662;49.128;8.520;2023-02-15T17:29:51;26.15;;;18.83;;
28427;SDS011;15662;49.128;8.520;2023-02-15T17:31:58;27.20;;;18.55;;
28427;SDS011;15662;49.128;8.520;2023-02-15T17:34:49;28.85;;;19.65;;
28427;SDS011;15662;49.128;8.520;2023-02-15T17:37:23;28.38;;;19.80;;
28427;SDS011;15662;49.128;8.520;2023-02-15T17:39:53;28.30;;;19.90;;
28427;SDS011;15662;49.128;8.520;2023-02-15T17:42:22;28.73;;;20.05;;
28427;SDS011;15662;49.128;8.520;2023-02-15T17:44:50;31.58;;;20.27;;
28427;SDS011;15662;49.128;8.520;2023-02-15T17:47:18;25.88;;;19.20;;
28427;SDS011;15662;49.128;8.520;2023-02-15T17:49:49;27.88;;;19.15;;
28427;SDS011;15662;49.128;8.520;2023-02-15T17:52:17;28.92;;;18.80;;
28427;SDS011;15662;49.128;8.520;2023-02-15T17:54:45;27.95;;;18.67;;
28427;SDS011;15662;49.128;8.520;2023-02-15T17:57:32;33.53;;;18.13;;
28427;SDS011;15662;49.128;8.520;2023-02-15T18:00:00;28.67;;;18.98;;
28427;SDS011;15662;49.128;8.520;2023-02-15T18:02:49;28.10;;;17.88;;
28427;SDS011;15662;49.128;8.520;2023-02-15T18:05:38;29.05;;;19.27;;
28427;SDS011;15662;49.128;8.520;2023-02-15T18:08:26;27.35;;;18.65;;
28427;SDS011;15662;49.128;8.520;2023-02-15T18:11:12;28.13;;;18.88;;
28427;SDS011;15662;49.128;8.520;2023-02-15T18:13:59;28.30;;;18.25;;
28427;SDS011;15662;49.128;8.520;2023-02-15T18:16:32;29.15;;;18.58;;
28427;SDS011;15662;49.128;8.520;2023-02-15T18:19:15;25.75;;;18.13;;
28427;SDS011;15662;49.128;8.520;2023-02-15T18:21:53;24.00;;;17.45;;
28427;SDS011;15662;49.128;8.520;2023-02-15T18:24:24;22.80;;;17.10;;
28427;SDS011;15662;49.128;8.520;2023-02-15T18:26:53;25.83;;;18.23;;
28427;SDS011;15662;49.128;8.520;2023-02-15T18:29:21;27.20;;;18.40;;
28427;SDS011;15662;49.128;8.520;2023-02-15T18:31:51;27.52;;;18.70;;
28427;SDS011;15662;49.128;8.520;2023-02-15T18:36:54;26.30;;;18.65;;
28427;SDS011;15662;49.128;8.520;2023-02-15T18:39:42;26.25;;;18.60;;